sensor_id;sensor_type;location;lat;lon;timestamp;temperature;humidity
29345;DHT22;16339;48.748;2.222;2022-09-13T00:01:25;22.60;68.80
29345;DHT22;16339;48.748;2.222;2022-09-13T00:03:56;22.60;68.70
29345;DHT22;16339;48.748;2.222;2022-09-13T00:06:25;22.60;68.90
29345;DHT22;16339;48.748;2.222;2022-09-13T00:08:53;22.70;68.20
29345;DHT22;16339;48.748;2.222;2022-09-13T00:11:24;22.50;68.30
29345;DHT22;16339;48.748;2.222;2022-09-13T00:13:55;22.50;68.70
29345;DHT22;16339;48.748;2.222;2022-09-13T00:16:26;22.60;68.80
29345;DHT22;16339;48.748;2.222;2022-09-13T00:18:59;22.60;68.80
29345;DHT22;16339;48.748;2.222;2022-09-13T00:21:27;22.50;69.20
29345;DHT22;16339;48.748;2.222;2022-09-13T00:23:57;22.50;69.70
29345;DHT22;16339;48.748;2.222;2022-09-13T00:26:26;22.60;69.40
29345;DHT22;16339;48.748;2.222;2022-09-13T00:28:57;22.60;69.70
29345;DHT22;16339;48.748;2.222;2022-09-13T00:31:27;22.50;69.50
29345;DHT22;16339;48.748;2.222;2022-09-13T00:34:03;22.60;69.40
29345;DHT22;16339;48.748;2.222;2022-09-13T00:36:32;22.50;69.40
29345;DHT22;16339;48.748;2.222;2022-09-13T00:39:00;22.50;69.10
29345;DHT22;16339;48.748;2.222;2022-09-13T00:41:29;22.60;69.20
29345;DHT22;16339;48.748;2.222;2022-09-13T00:43:59;22.60;68.80
29345;DHT22;16339;48.748;2.222;2022-09-13T00:46:34;22.40;69.60
29345;DHT22;16339;48.748;2.222;2022-09-13T00:49:13;22.50;68.80
29345;DHT22;16339;48.748;2.222;2022-09-13T00:51:44;22.50;69.00
29345;DHT22;16339;48.748;2.222;2022-09-13T00:54:15;22.50;69.00
29345;DHT22;16339;48.748;2.222;2022-09-13T00:56:49;22.40;69.60
29345;DHT22;16339;48.748;2.222;2022-09-13T00:59:24;22.50;69.70
29345;DHT22;16339;48.748;2.222;2022-09-13T01:01:56;22.50;69.40
29345;DHT22;16339;48.748;2.222;2022-09-13T01:04:29;22.50;69.50
29345;DHT22;16339;48.748;2.222;2022-09-13T01:07:02;22.50;69.60
29345;DHT22;16339;48.748;2.222;2022-09-13T01:09:34;22.50;70.00
29345;DHT22;16339;48.748;2.222;2022-09-13T01:12:08;22.50;70.20
29345;DHT22;16339;48.748;2.222;2022-09-13T01:14:41;22.40;70.10
29345;DHT22;16339;48.748;2.222;2022-09-13T01:17:11;22.40;70.30
29345;DHT22;16339;48.748;2.222;2022-09-13T01:19:42;22.30;70.90
29345;DHT22;16339;48.748;2.222;2022-09-13T01:22:32;22.20;70.30
29345;DHT22;16339;48.748;2.222;2022-09-13T01:25:30;22.20;70.10
29345;DHT22;16339;48.748;2.222;2022-09-13T01:28:16;22.20;69.90
29345;DHT22;16339;48.748;2.222;2022-09-13T01:30:54;22.30;70.20
29345;DHT22;16339;48.748;2.222;2022-09-13T01:33:48;22.30;70.00
29345;DHT22;16339;48.748;2.222;2022-09-13T01:36:51;22.40;69.60
29345;DHT22;16339;48.748;2.222;2022-09-13T01:39:30;22.30;69.70
29345;DHT22;16339;48.748;2.222;2022-09-13T01:42:10;22.40;70.20
29345;DHT22;16339;48.748;2.222;2022-09-13T01:44:55;22.30;70.30
29345;DHT22;16339;48.748;2.222;2022-09-13T01:47:31;22.50;70.40
29345;DHT22;16339;48.748;2.222;2022-09-13T01:50:12;22.40;70.30
29345;DHT22;16339;48.748;2.222;2022-09-13T01:52:49;22.50;70.50
29345;DHT22;16339;48.748;2.222;2022-09-13T01:55:27;22.50;70.30
29345;DHT22;16339;48.748;2.222;2022-09-13T01:58:02;22.40;70.50
29345;DHT22;16339;48.748;2.222;2022-09-13T02:00:38;22.40;70.60
29345;DHT22;16339;48.748;2.222;2022-09-13T02:03:15;22.50;70.30
29345;DHT22;16339;48.748;2.222;2022-09-13T02:05:49;22.40;70.50
29345;DHT22;16339;48.748;2.222;2022-09-13T02:08:21;22.40;70.50
29345;DHT22;16339;48.748;2.222;2022-09-13T02:10:57;22.40;70.40
29345;DHT22;16339;48.748;2.222;2022-09-13T02:13:31;22.30;70.70
29345;DHT22;16339;48.748;2.222;2022-09-13T02:16:07;22.40;70.60
29345;DHT22;16339;48.748;2.222;2022-09-13T02:18:42;22.40;70.80
29345;DHT22;16339;48.748;2.222;2022-09-13T02:21:19;22.30;70.80
29345;DHT22;16339;48.748;2.222;2022-09-13T02:23:51;22.30;70.40
29345;DHT22;16339;48.748;2.222;2022-09-13T02:26:24;22.30;70.10
29345;DHT22;16339;48.748;2.222;2022-09-13T02:28:55;22.30;70.00
29345;DHT22;16339;48.748;2.222;2022-09-13T02:31:29;22.20;69.90
29345;DHT22;16339;48.748;2.222;2022-09-13T02:34:05;22.20;69.90
29345;DHT22;16339;48.748;2.222;2022-09-13T02:36:37;22.20;69.70
29345;DHT22;16339;48.748;2.222;2022-09-13T02:39:11;22.30;69.90
29345;DHT22;16339;48.748;2.222;2022-09-13T02:41:46;22.10;69.80
29345;DHT22;16339;48.748;2.222;2022-09-13T02:44:22;22.10;69.60
29345;DHT22;16339;48.748;2.222;2022-09-13T02:47:03;22.10;70.80
29345;DHT22;16339;48.748;2.222;2022-09-13T02:49:45;22.10;69.90
29345;DHT22;16339;48.748;2.222;2022-09-13T02:52:21;21.90;69.90
29345;DHT22;16339;48.748;2.222;2022-09-13T02:54:55;21.80;69.40
29345;DHT22;16339;48.748;2.222;2022-09-13T02:57:27;21.50;69.80
29345;DHT22;16339;48.748;2.222;2022-09-13T02:59:57;21.60;70.40
29345;DHT22;16339;48.748;2.222;2022-09-13T03:02:30;21.70;70.70
29345;DHT22;16339;48.748;2.222;2022-09-13T03:05:02;21.90;70.70
29345;DHT22;16339;48.748;2.222;2022-09-13T03:07:31;22.00;70.50
29345;DHT22;16339;48.748;2.222;2022-09-13T03:10:03;22.00;70.70
29345;DHT22;16339;48.748;2.222;2022-09-13T03:12:43;22.10;70.70
29345;DHT22;16339;48.748;2.222;2022-09-13T03:15:23;22.10;70.50
29345;DHT22;16339;48.748;2.222;2022-09-13T03:18:05;22.10;70.60
29345;DHT22;16339;48.748;2.222;2022-09-13T03:20:45;22.20;70.30
29345;DHT22;16339;48.748;2.222;2022-09-13T03:23:33;22.10;70.30
29345;DHT22;16339;48.748;2.222;2022-09-13T03:26:23;22.00;70.20
29345;DHT22;16339;48.748;2.222;2022-09-13T03:29:01;22.00;70.10
29345;DHT22;16339;48.748;2.222;2022-09-13T03:31:37;22.00;70.00
29345;DHT22;16339;48.748;2.222;2022-09-13T03:34:18;22.10;70.20
29345;DHT22;16339;48.748;2.222;2022-09-13T03:36:55;22.10;70.50
29345;DHT22;16339;48.748;2.222;2022-09-13T03:39:32;22.20;70.60
29345;DHT22;16339;48.748;2.222;2022-09-13T03:42:09;22.20;70.80
29345;DHT22;16339;48.748;2.222;2022-09-13T03:44:41;22.20;71.10
29345;DHT22;16339;48.748;2.222;2022-09-13T03:47:12;22.20;71.30
29345;DHT22;16339;48.748;2.222;2022-09-13T03:49:41;22.20;71.10
29345;DHT22;16339;48.748;2.222;2022-09-13T03:52:13;22.00;70.90
29345;DHT22;16339;48.748;2.222;2022-09-13T03:54:42;21.70;71.80
29345;DHT22;16339;48.748;2.222;2022-09-13T03:57:12;21.80;72.20
29345;DHT22;16339;48.748;2.222;2022-09-13T03:59:44;21.90;71.70
29345;DHT22;16339;48.748;2.222;2022-09-13T04:02:14;21.90;70.80
29345;DHT22;16339;48.748;2.222;2022-09-13T04:04:43;22.00;70.90
29345;DHT22;16339;48.748;2.222;2022-09-13T04:07:17;22.10;70.80
29345;DHT22;16339;48.748;2.222;2022-09-13T04:09:46;22.10;70.60
29345;DHT22;16339;48.748;2.222;2022-09-13T04:12:16;22.10;71.10
29345;DHT22;16339;48.748;2.222;2022-09-13T04:14:45;22.20;71.40
29345;DHT22;16339;48.748;2.222;2022-09-13T04:17:14;22.30;71.50
29345;DHT22;16339;48.748;2.222;2022-09-13T04:19:43;22.30;71.60
29345;DHT22;16339;48.748;2.222;2022-09-13T04:22:15;22.30;71.60
29345;DHT22;16339;48.748;2.222;2022-09-13T04:24:44;22.20;71.60
29345;DHT22;16339;48.748;2.222;2022-09-13T04:27:13;22.20;71.30
29345;DHT22;16339;48.748;2.222;2022-09-13T04:29:41;22.30;71.50
29345;DHT22;16339;48.748;2.222;2022-09-13T04:32:10;22.30;71.50
29345;DHT22;16339;48.748;2.222;2022-09-13T04:34:39;21.90;71.70
29345;DHT22;16339;48.748;2.222;2022-09-13T04:37:07;21.90;72.20
29345;DHT22;16339;48.748;2.222;2022-09-13T04:39:39;21.90;72.20
29345;DHT22;16339;48.748;2.222;2022-09-13T04:42:08;22.00;71.80
29345;DHT22;16339;48.748;2.222;2022-09-13T04:44:37;22.00;71.90
29345;DHT22;16339;48.748;2.222;2022-09-13T04:47:07;22.20;72.00
29345;DHT22;16339;48.748;2.222;2022-09-13T04:49:36;22.20;71.90
29345;DHT22;16339;48.748;2.222;2022-09-13T04:52:05;22.20;71.70
29345;DHT22;16339;48.748;2.222;2022-09-13T04:54:33;22.20;71.90
29345;DHT22;16339;48.748;2.222;2022-09-13T04:57:05;22.10;71.80
29345;DHT22;16339;48.748;2.222;2022-09-13T04:59:34;22.10;72.30
29345;DHT22;16339;48.748;2.222;2022-09-13T05:02:02;22.10;72.30
29345;DHT22;16339;48.748;2.222;2022-09-13T05:04:31;22.20;72.00
29345;DHT22;16339;48.748;2.222;2022-09-13T05:07:00;22.10;71.90
29345;DHT22;16339;48.748;2.222;2022-09-13T05:09:29;21.90;72.00
29345;DHT22;16339;48.748;2.222;2022-09-13T05:11:58;21.80;72.60
29345;DHT22;16339;48.748;2.222;2022-09-13T05:14:29;21.80;72.30
29345;DHT22;16339;48.748;2.222;2022-09-13T05:16:59;21.70;72.20
29345;DHT22;16339;48.748;2.222;2022-09-13T05:19:28;21.70;72.30
29345;DHT22;16339;48.748;2.222;2022-09-13T05:21:57;21.60;72.50
29345;DHT22;16339;48.748;2.222;2022-09-13T05:24:26;21.50;72.90
29345;DHT22;16339;48.748;2.222;2022-09-13T05:26:54;21.30;73.00
29345;DHT22;16339;48.748;2.222;2022-09-13T05:29:23;21.40;73.40
29345;DHT22;16339;48.748;2.222;2022-09-13T05:31:54;21.50;73.20
29345;DHT22;16339;48.748;2.222;2022-09-13T05:34:23;21.20;73.90
29345;DHT22;16339;48.748;2.222;2022-09-13T05:36:51;21.00;73.90
29345;DHT22;16339;48.748;2.222;2022-09-13T05:39:20;21.10;73.60
29345;DHT22;16339;48.748;2.222;2022-09-13T05:41:49;21.40;73.30
29345;DHT22;16339;48.748;2.222;2022-09-13T05:44:18;21.70;73.20
29345;DHT22;16339;48.748;2.222;2022-09-13T05:46:47;21.60;72.60
29345;DHT22;16339;48.748;2.222;2022-09-13T05:49:19;21.30;73.10
29345;DHT22;16339;48.748;2.222;2022-09-13T05:51:47;21.60;72.60
29345;DHT22;16339;48.748;2.222;2022-09-13T05:54:16;21.70;72.00
29345;DHT22;16339;48.748;2.222;2022-09-13T05:56:45;21.80;72.00
29345;DHT22;16339;48.748;2.222;2022-09-13T05:59:17;21.80;71.90
29345;DHT22;16339;48.748;2.222;2022-09-13T06:01:45;21.80;70.70
29345;DHT22;16339;48.748;2.222;2022-09-13T06:04:14;21.50;70.40
29345;DHT22;16339;48.748;2.222;2022-09-13T06:06:46;21.30;71.00
29345;DHT22;16339;48.748;2.222;2022-09-13T06:09:14;21.40;69.80
29345;DHT22;16339;48.748;2.222;2022-09-13T06:11:43;21.30;69.40
29345;DHT22;16339;48.748;2.222;2022-09-13T06:14:12;21.50;69.60
29345;DHT22;16339;48.748;2.222;2022-09-13T06:16:40;21.60;69.10
29345;DHT22;16339;48.748;2.222;2022-09-13T06:19:09;21.70;69.50
29345;DHT22;16339;48.748;2.222;2022-09-13T06:21:38;21.60;69.20
29345;DHT22;16339;48.748;2.222;2022-09-13T06:24:09;21.70;68.80
29345;DHT22;16339;48.748;2.222;2022-09-13T06:26:39;21.80;68.60
29345;DHT22;16339;48.748;2.222;2022-09-13T06:29:09;22.00;68.00
29345;DHT22;16339;48.748;2.222;2022-09-13T06:31:39;22.00;67.20
29345;DHT22;16339;48.748;2.222;2022-09-13T06:34:12;22.00;66.30
29345;DHT22;16339;48.748;2.222;2022-09-13T06:36:42;22.10;66.10
29345;DHT22;16339;48.748;2.222;2022-09-13T06:39:13;22.20;66.80
29345;DHT22;16339;48.748;2.222;2022-09-13T06:41:42;22.30;66.00
29345;DHT22;16339;48.748;2.222;2022-09-13T06:44:10;22.50;66.30
29345;DHT22;16339;48.748;2.222;2022-09-13T06:46:39;22.50;65.50
29345;DHT22;16339;48.748;2.222;2022-09-13T06:49:09;22.50;65.70
29345;DHT22;16339;48.748;2.222;2022-09-13T06:51:38;22.70;65.20
29345;DHT22;16339;48.748;2.222;2022-09-13T06:54:06;22.60;65.10
29345;DHT22;16339;48.748;2.222;2022-09-13T06:56:38;22.70;64.90
29345;DHT22;16339;48.748;2.222;2022-09-13T06:59:08;22.80;64.80
29345;DHT22;16339;48.748;2.222;2022-09-13T07:01:38;22.70;64.20
29345;DHT22;16339;48.748;2.222;2022-09-13T07:04:09;22.80;64.10
29345;DHT22;16339;48.748;2.222;2022-09-13T07:06:40;22.80;64.10
29345;DHT22;16339;48.748;2.222;2022-09-13T07:09:11;22.80;65.20
29345;DHT22;16339;48.748;2.222;2022-09-13T07:11:45;22.80;64.70
29345;DHT22;16339;48.748;2.222;2022-09-13T07:14:16;22.90;64.50
29345;DHT22;16339;48.748;2.222;2022-09-13T07:16:49;22.90;64.20
29345;DHT22;16339;48.748;2.222;2022-09-13T07:19:19;23.00;64.10
29345;DHT22;16339;48.748;2.222;2022-09-13T07:21:53;23.00;64.00
29345;DHT22;16339;48.748;2.222;2022-09-13T07:24:23;23.10;64.00
29345;DHT22;16339;48.748;2.222;2022-09-13T07:26:57;23.20;64.10
29345;DHT22;16339;48.748;2.222;2022-09-13T07:29:25;23.30;64.40
29345;DHT22;16339;48.748;2.222;2022-09-13T07:31:55;23.40;64.10
29345;DHT22;16339;48.748;2.222;2022-09-13T07:34:25;23.50;63.50
29345;DHT22;16339;48.748;2.222;2022-09-13T07:36:54;23.50;62.90
29345;DHT22;16339;48.748;2.222;2022-09-13T07:39:22;23.60;63.00
29345;DHT22;16339;48.748;2.222;2022-09-13T07:41:51;23.60;63.00
29345;DHT22;16339;48.748;2.222;2022-09-13T07:44:24;23.70;63.20
29345;DHT22;16339;48.748;2.222;2022-09-13T07:46:52;23.70;63.60
29345;DHT22;16339;48.748;2.222;2022-09-13T07:49:21;23.70;63.50
29345;DHT22;16339;48.748;2.222;2022-09-13T07:51:53;23.70;63.20
29345;DHT22;16339;48.748;2.222;2022-09-13T07:54:22;23.80;62.90
29345;DHT22;16339;48.748;2.222;2022-09-13T07:56:50;23.80;62.70
29345;DHT22;16339;48.748;2.222;2022-09-13T07:59:19;23.80;62.40
29345;DHT22;16339;48.748;2.222;2022-09-13T08:01:51;23.90;62.40
29345;DHT22;16339;48.748;2.222;2022-09-13T08:04:24;23.90;62.20
29345;DHT22;16339;48.748;2.222;2022-09-13T08:06:52;23.90;61.90
29345;DHT22;16339;48.748;2.222;2022-09-13T08:09:21;23.90;62.20
29345;DHT22;16339;48.748;2.222;2022-09-13T08:11:50;23.90;62.10
29345;DHT22;16339;48.748;2.222;2022-09-13T08:14:20;23.90;62.00
29345;DHT22;16339;48.748;2.222;2022-09-13T08:16:54;23.90;62.70
29345;DHT22;16339;48.748;2.222;2022-09-13T08:19:22;23.90;61.90
29345;DHT22;16339;48.748;2.222;2022-09-13T08:21:51;23.80;62.80
29345;DHT22;16339;48.748;2.222;2022-09-13T08:24:21;23.90;61.80
29345;DHT22;16339;48.748;2.222;2022-09-13T08:26:53;23.90;61.60
29345;DHT22;16339;48.748;2.222;2022-09-13T08:29:23;23.90;61.80
29345;DHT22;16339;48.748;2.222;2022-09-13T08:31:54;23.90;61.90
29345;DHT22;16339;48.748;2.222;2022-09-13T08:34:22;23.90;61.80
29345;DHT22;16339;48.748;2.222;2022-09-13T08:36:51;23.80;61.90
29345;DHT22;16339;48.748;2.222;2022-09-13T08:39:24;24.00;62.60
29345;DHT22;16339;48.748;2.222;2022-09-13T08:42:18;23.90;61.70
29345;DHT22;16339;48.748;2.222;2022-09-13T08:44:52;24.00;61.90
29345;DHT22;16339;48.748;2.222;2022-09-13T08:47:38;24.10;61.90
29345;DHT22;16339;48.748;2.222;2022-09-13T08:50:14;24.10;61.50
29345;DHT22;16339;48.748;2.222;2022-09-13T08:53:11;24.10;61.40
29345;DHT22;16339;48.748;2.222;2022-09-13T08:55:50;24.10;61.60
29345;DHT22;16339;48.748;2.222;2022-09-13T08:58:35;24.00;61.50
29345;DHT22;16339;48.748;2.222;2022-09-13T09:01:11;24.10;62.00
29345;DHT22;16339;48.748;2.222;2022-09-13T09:03:47;24.10;62.00
29345;DHT22;16339;48.748;2.222;2022-09-13T09:06:21;24.10;62.70
29345;DHT22;16339;48.748;2.222;2022-09-13T09:08:53;24.20;62.40
29345;DHT22;16339;48.748;2.222;2022-09-13T09:11:29;24.20;64.50
29345;DHT22;16339;48.748;2.222;2022-09-13T09:14:03;24.20;64.70
29345;DHT22;16339;48.748;2.222;2022-09-13T09:16:38;24.20;65.80
29345;DHT22;16339;48.748;2.222;2022-09-13T09:19:17;24.20;65.20
29345;DHT22;16339;48.748;2.222;2022-09-13T09:21:49;24.20;65.90
29345;DHT22;16339;48.748;2.222;2022-09-13T09:24:20;24.30;67.00
29345;DHT22;16339;48.748;2.222;2022-09-13T09:26:49;24.40;67.30
29345;DHT22;16339;48.748;2.222;2022-09-13T09:29:21;24.40;66.50
29345;DHT22;16339;48.748;2.222;2022-09-13T09:32:05;24.40;67.30
29345;DHT22;16339;48.748;2.222;2022-09-13T09:34:50;24.50;66.80
29345;DHT22;16339;48.748;2.222;2022-09-13T09:37:24;24.50;66.40
29345;DHT22;16339;48.748;2.222;2022-09-13T09:39:58;24.40;66.20
29345;DHT22;16339;48.748;2.222;2022-09-13T09:42:37;24.40;67.30
29345;DHT22;16339;48.748;2.222;2022-09-13T09:45:22;24.40;67.50
29345;DHT22;16339;48.748;2.222;2022-09-13T09:47:53;24.40;66.90
29345;DHT22;16339;48.748;2.222;2022-09-13T09:50:27;24.50;67.40
29345;DHT22;16339;48.748;2.222;2022-09-13T09:53:04;24.60;66.30
29345;DHT22;16339;48.748;2.222;2022-09-13T09:55:39;24.60;65.00
29345;DHT22;16339;48.748;2.222;2022-09-13T09:58:11;24.60;65.00
29345;DHT22;16339;48.748;2.222;2022-09-13T10:00:51;24.70;65.50
29345;DHT22;16339;48.748;2.222;2022-09-13T10:03:24;24.70;64.40
29345;DHT22;16339;48.748;2.222;2022-09-13T10:06:07;24.70;64.40
29345;DHT22;16339;48.748;2.222;2022-09-13T10:08:37;24.70;63.90
29345;DHT22;16339;48.748;2.222;2022-09-13T10:11:08;24.80;63.60
29345;DHT22;16339;48.748;2.222;2022-09-13T10:13:37;24.80;63.40
29345;DHT22;16339;48.748;2.222;2022-09-13T10:16:24;24.80;62.30
29345;DHT22;16339;48.748;2.222;2022-09-13T10:19:02;24.80;62.00
29345;DHT22;16339;48.748;2.222;2022-09-13T10:21:59;24.90;62.00
29345;DHT22;16339;48.748;2.222;2022-09-13T10:24:28;24.90;62.40
29345;DHT22;16339;48.748;2.222;2022-09-13T10:26:58;24.90;62.10
29345;DHT22;16339;48.748;2.222;2022-09-13T10:29:29;24.90;61.80
29345;DHT22;16339;48.748;2.222;2022-09-13T10:32:06;25.00;62.60
29345;DHT22;16339;48.748;2.222;2022-09-13T10:34:40;24.90;62.60
29345;DHT22;16339;48.748;2.222;2022-09-13T10:37:16;24.90;62.50
29345;DHT22;16339;48.748;2.222;2022-09-13T10:39:54;25.00;61.80
29345;DHT22;16339;48.748;2.222;2022-09-13T10:42:25;25.00;61.70
29345;DHT22;16339;48.748;2.222;2022-09-13T10:44:56;25.10;62.60
29345;DHT22;16339;48.748;2.222;2022-09-13T10:47:30;25.10;62.00
29345;DHT22;16339;48.748;2.222;2022-09-13T10:50:17;25.10;61.60
29345;DHT22;16339;48.748;2.222;2022-09-13T10:52:50;25.20;61.80
29345;DHT22;16339;48.748;2.222;2022-09-13T10:55:31;25.40;61.20
29345;DHT22;16339;48.748;2.222;2022-09-13T10:58:27;25.50;61.20
29345;DHT22;16339;48.748;2.222;2022-09-13T11:07:11;25.60;60.40
29345;DHT22;16339;48.748;2.222;2022-09-13T11:09:47;25.70;59.60
29345;DHT22;16339;48.748;2.222;2022-09-13T11:12:26;25.80;60.10
29345;DHT22;16339;48.748;2.222;2022-09-13T11:15:06;25.80;60.10
29345;DHT22;16339;48.748;2.222;2022-09-13T11:20:46;25.90;59.90
29345;DHT22;16339;48.748;2.222;2022-09-13T11:26:34;25.90;59.90
29345;DHT22;16339;48.748;2.222;2022-09-13T11:29:17;25.90;59.20
29345;DHT22;16339;48.748;2.222;2022-09-13T11:31:56;25.90;59.10
29345;DHT22;16339;48.748;2.222;2022-09-13T11:34:36;25.90;59.20
29345;DHT22;16339;48.748;2.222;2022-09-13T11:37:28;25.80;58.90
29345;DHT22;16339;48.748;2.222;2022-09-13T11:40:17;25.90;59.10
29345;DHT22;16339;48.748;2.222;2022-09-13T11:43:01;26.00;59.00
29345;DHT22;16339;48.748;2.222;2022-09-13T11:45:38;26.10;59.20
29345;DHT22;16339;48.748;2.222;2022-09-13T11:48:37;26.10;59.00
29345;DHT22;16339;48.748;2.222;2022-09-13T11:51:13;26.00;59.10
29345;DHT22;16339;48.748;2.222;2022-09-13T11:54:09;26.10;58.90
29345;DHT22;16339;48.748;2.222;2022-09-13T11:56:45;26.00;58.60
29345;DHT22;16339;48.748;2.222;2022-09-13T11:59:36;25.90;58.90
29345;DHT22;16339;48.748;2.222;2022-09-13T12:02:15;25.90;59.00
29345;DHT22;16339;48.748;2.222;2022-09-13T12:04:51;26.00;59.40
29345;DHT22;16339;48.748;2.222;2022-09-13T12:07:29;26.00;59.30
29345;DHT22;16339;48.748;2.222;2022-09-13T12:10:04;26.10;59.10
29345;DHT22;16339;48.748;2.222;2022-09-13T12:12:34;26.20;59.80
29345;DHT22;16339;48.748;2.222;2022-09-13T12:15:13;26.20;59.90
29345;DHT22;16339;48.748;2.222;2022-09-13T12:17:46;26.40;59.70
29345;DHT22;16339;48.748;2.222;2022-09-13T12:20:29;26.50;59.50
29345;DHT22;16339;48.748;2.222;2022-09-13T12:23:02;26.70;59.20
29345;DHT22;16339;48.748;2.222;2022-09-13T12:25:37;26.70;59.00
29345;DHT22;16339;48.748;2.222;2022-09-13T12:28:14;26.70;59.10
29345;DHT22;16339;48.748;2.222;2022-09-13T12:30:56;26.70;58.40
29345;DHT22;16339;48.748;2.222;2022-09-13T12:33:26;26.70;58.90
29345;DHT22;16339;48.748;2.222;2022-09-13T12:36:30;26.60;59.10
29345;DHT22;16339;48.748;2.222;2022-09-13T12:39:30;26.50;59.20
29345;DHT22;16339;48.748;2.222;2022-09-13T12:42:23;26.60;58.90
29345;DHT22;16339;48.748;2.222;2022-09-13T12:45:12;26.60;59.20
29345;DHT22;16339;48.748;2.222;2022-09-13T12:47:57;26.60;59.30
29345;DHT22;16339;48.748;2.222;2022-09-13T12:50:46;26.60;59.20
29345;DHT22;16339;48.748;2.222;2022-09-13T12:53:40;26.60;59.00
29345;DHT22;16339;48.748;2.222;2022-09-13T12:56:41;26.50;59.00
29345;DHT22;16339;48.748;2.222;2022-09-13T13:02:27;26.60;58.90
29345;DHT22;16339;48.748;2.222;2022-09-13T13:05:03;26.70;59.00
29345;DHT22;16339;48.748;2.222;2022-09-13T13:07:34;26.80;59.70
29345;DHT22;16339;48.748;2.222;2022-09-13T13:10:20;27.00;59.50
29345;DHT22;16339;48.748;2.222;2022-09-13T13:12:50;27.10;59.10
29345;DHT22;16339;48.748;2.222;2022-09-13T13:18:22;27.10;58.80
29345;DHT22;16339;48.748;2.222;2022-09-13T13:21:26;27.00;58.20
29345;DHT22;16339;48.748;2.222;2022-09-13T13:33:04;26.90;58.80
29345;DHT22;16339;48.748;2.222;2022-09-13T13:35:33;27.00;58.90
29345;DHT22;16339;48.748;2.222;2022-09-13T13:41:46;26.90;58.80
29345;DHT22;16339;48.748;2.222;2022-09-13T13:50:29;26.80;58.50
29345;DHT22;16339;48.748;2.222;2022-09-13T13:53:18;26.90;58.60
29345;DHT22;16339;48.748;2.222;2022-09-13T13:55:48;26.90;58.60
29345;DHT22;16339;48.748;2.222;2022-09-13T13:58:44;26.80;58.80
29345;DHT22;16339;48.748;2.222;2022-09-13T14:01:17;26.80;59.30
29345;DHT22;16339;48.748;2.222;2022-09-13T14:06:54;26.80;58.90
29345;DHT22;16339;48.748;2.222;2022-09-13T14:09:31;27.00;58.80
29345;DHT22;16339;48.748;2.222;2022-09-13T14:12:18;27.00;58.90
29345;DHT22;16339;48.748;2.222;2022-09-13T14:15:03;27.10;59.40
29345;DHT22;16339;48.748;2.222;2022-09-13T14:18:08;27.10;59.00
29345;DHT22;16339;48.748;2.222;2022-09-13T14:20:59;27.30;58.80
29345;DHT22;16339;48.748;2.222;2022-09-13T14:23:28;27.40;58.90
29345;DHT22;16339;48.748;2.222;2022-09-13T14:25:59;27.70;58.50
29345;DHT22;16339;48.748;2.222;2022-09-13T14:28:28;27.80;58.10
29345;DHT22;16339;48.748;2.222;2022-09-13T14:30:59;28.00;57.40
29345;DHT22;16339;48.748;2.222;2022-09-13T14:33:29;28.00;57.20
29345;DHT22;16339;48.748;2.222;2022-09-13T14:36:03;27.90;57.60
29345;DHT22;16339;48.748;2.222;2022-09-13T14:38:33;27.80;57.40
29345;DHT22;16339;48.748;2.222;2022-09-13T14:41:12;27.70;58.00
29345;DHT22;16339;48.748;2.222;2022-09-13T14:43:42;27.60;57.50
29345;DHT22;16339;48.748;2.222;2022-09-13T14:46:16;27.50;58.10
29345;DHT22;16339;48.748;2.222;2022-09-13T14:48:50;27.40;58.10
29345;DHT22;16339;48.748;2.222;2022-09-13T14:51:23;27.40;57.90
29345;DHT22;16339;48.748;2.222;2022-09-13T14:53:57;27.40;58.20
29345;DHT22;16339;48.748;2.222;2022-09-13T14:56:33;27.40;58.60
29345;DHT22;16339;48.748;2.222;2022-09-13T14:59:05;27.40;58.90
29345;DHT22;16339;48.748;2.222;2022-09-13T15:01:37;27.40;58.90
29345;DHT22;16339;48.748;2.222;2022-09-13T15:04:06;27.40;59.00
29345;DHT22;16339;48.748;2.222;2022-09-13T15:06:37;27.40;59.30
29345;DHT22;16339;48.748;2.222;2022-09-13T15:09:26;27.30;59.50
29345;DHT22;16339;48.748;2.222;2022-09-13T15:11:57;27.30;59.80
29345;DHT22;16339;48.748;2.222;2022-09-13T15:14:28;27.30;59.70
29345;DHT22;16339;48.748;2.222;2022-09-13T15:17:07;27.40;59.80
29345;DHT22;16339;48.748;2.222;2022-09-13T15:19:39;27.40;60.10
29345;DHT22;16339;48.748;2.222;2022-09-13T15:22:14;27.50;60.20
29345;DHT22;16339;48.748;2.222;2022-09-13T15:24:47;27.50;60.50
29345;DHT22;16339;48.748;2.222;2022-09-13T15:27:22;27.60;60.30
29345;DHT22;16339;48.748;2.222;2022-09-13T15:29:54;27.70;59.60
29345;DHT22;16339;48.748;2.222;2022-09-13T15:32:27;27.90;59.60
29345;DHT22;16339;48.748;2.222;2022-09-13T15:34:58;28.20;58.80
29345;DHT22;16339;48.748;2.222;2022-09-13T15:37:33;28.30;57.50
29345;DHT22;16339;48.748;2.222;2022-09-13T15:40:17;28.40;56.70
29345;DHT22;16339;48.748;2.222;2022-09-13T15:42:47;28.40;56.80
29345;DHT22;16339;48.748;2.222;2022-09-13T15:45:17;28.30;56.40
29345;DHT22;16339;48.748;2.222;2022-09-13T15:47:50;28.40;56.70
29345;DHT22;16339;48.748;2.222;2022-09-13T15:50:22;28.30;56.40
29345;DHT22;16339;48.748;2.222;2022-09-13T15:52:51;28.30;56.70
29345;DHT22;16339;48.748;2.222;2022-09-13T15:55:20;28.20;57.20
29345;DHT22;16339;48.748;2.222;2022-09-13T15:57:50;28.20;57.60
29345;DHT22;16339;48.748;2.222;2022-09-13T16:00:22;28.10;57.50
29345;DHT22;16339;48.748;2.222;2022-09-13T16:02:54;28.10;57.60
29345;DHT22;16339;48.748;2.222;2022-09-13T16:05:22;28.10;57.80
29345;DHT22;16339;48.748;2.222;2022-09-13T16:07:51;28.10;58.30
29345;DHT22;16339;48.748;2.222;2022-09-13T16:10:23;28.10;58.50
29345;DHT22;16339;48.748;2.222;2022-09-13T16:12:52;28.10;58.80
29345;DHT22;16339;48.748;2.222;2022-09-13T16:15:20;28.00;59.00
29345;DHT22;16339;48.748;2.222;2022-09-13T16:17:49;28.00;58.90
29345;DHT22;16339;48.748;2.222;2022-09-13T16:20:21;28.00;59.00
29345;DHT22;16339;48.748;2.222;2022-09-13T16:22:50;28.00;59.20
29345;DHT22;16339;48.748;2.222;2022-09-13T16:25:19;28.10;59.90
29345;DHT22;16339;48.748;2.222;2022-09-13T16:27:48;28.20;60.30
29345;DHT22;16339;48.748;2.222;2022-09-13T16:30:19;28.20;59.60
29345;DHT22;16339;48.748;2.222;2022-09-13T16:32:49;28.20;59.80
29345;DHT22;16339;48.748;2.222;2022-09-13T16:35:20;28.20;59.80
29345;DHT22;16339;48.748;2.222;2022-09-13T16:37:49;28.20;59.30
29345;DHT22;16339;48.748;2.222;2022-09-13T16:40:18;28.20;59.20
29345;DHT22;16339;48.748;2.222;2022-09-13T16:42:47;28.10;59.50
29345;DHT22;16339;48.748;2.222;2022-09-13T16:45:16;28.00;60.50
29345;DHT22;16339;48.748;2.222;2022-09-13T16:47:44;27.90;60.90
29345;DHT22;16339;48.748;2.222;2022-09-13T16:50:13;27.80;62.00
29345;DHT22;16339;48.748;2.222;2022-09-13T16:52:45;27.80;62.70
29345;DHT22;16339;48.748;2.222;2022-09-13T16:55:14;27.60;63.50